Time;durP1;ratioP1;P1;durP2;ratioP2;P2;SDS_P1;SDS_P2;PMS_P1;PMS_P2;Temp;Humidity;BMP_temperature;BMP_pressure;BME280_temperature;BME280_humidity;BME280_pressure;Samples;Min_cycle;Max_cycle;Signal;HPM_P1;HPM_P2
2024/02/26 06:01:46;;;;;;;4.23;2.47;;;;;;;;;;5876656;22;20520;-74
2024/02/26 06:04:12;;;;;;;3.63;2.30;;;;;;;;;;5031885;28;20445;-74
2024/02/26 06:06:38;;;;;;;8.63;2.77;;;;;;;;;;5032540;28;20492;-73
2024/02/26 06:09:05;;;;;;;5.00;3.00;;;;;;;;;;5032240;28;20467;-73
2024/02/26 06:11:31;;;;;;;5.20;3.07;;;;;;;;;;5032395;28;20436;-74
2024/02/26 06:13:57;;;;;;;7.13;3.37;;;;;;;;;;5031836;28;20518;-74
2024/02/26 06:16:23;;;;;;;6.80;3.03;;;;;;;;;;5049250;22;20501;-76
2024/02/26 06:18:49;;;;;;;8.67;3.60;;;;;;;;;;5012157;28;20452;-76
2024/02/26 06:21:15;;;;;;;5.57;3.10;;;;;;;;;;5012095;28;20405;-76
2024/02/26 06:23:41;;;;;;;7.23;2.60;;;;;;;;;;5011859;28;20951;-76
2024/02/26 06:26:07;;;;;;;7.70;3.20;;;;;;;;;;5012152;28;20432;-77
2024/02/26 06:28:35;;;;;;;5.43;3.20;;;;;;;;;;5012334;28;20785;-76
2024/02/26 06:31:01;;;;;;;4.20;2.80;;;;;;;;;;4997483;28;20775;-76
2024/02/26 06:33:27;;;;;;;5.10;2.97;;;;;;;;;;5007005;28;20468;-75
2024/02/26 06:35:53;;;;;;;5.50;3.10;;;;;;;;;;5011867;28;20402;-75
2024/02/26 06:38:19;;;;;;;6.37;3.43;;;;;;;;;;5012368;28;20425;-77
2024/02/26 06:40:45;;;;;;;8.30;3.07;;;;;;;;;;5013670;28;20510;-76
2024/02/26 06:43:11;;;;;;;5.90;3.00;;;;;;;;;;5005315;28;20406;-75
2024/02/26 06:45:37;;;;;;;2.80;2.40;;;;;;;;;;5025739;28;20912;-74
2024/02/26 06:48:03;;;;;;;3.53;3.00;;;;;;;;;;5003079;28;20914;-74
2024/02/26 06:50:29;;;;;;;5.53;3.10;;;;;;;;;;4992232;28;20468;-75
2024/02/26 06:52:55;;;;;;;5.20;3.47;;;;;;;;;;5005137;28;20417;-74
2024/02/26 06:55:20;;;;;;;9.07;3.43;;;;;;;;;;5011795;28;20414;-75
2024/02/26 06:57:46;;;;;;;5.60;3.23;;;;;;;;;;5011760;28;20422;-74
2024/02/26 07:00:15;;;;;;;8.00;3.10;;;;;;;;;;5011721;28;20473;-75
2024/02/26 07:02:41;;;;;;;6.07;3.63;;;;;;;;;;5011512;28;20417;-74
2024/02/26 07:05:07;;;;;;;5.53;3.30;;;;;;;;;;4998085;28;20427;-75
2024/02/26 07:07:33;;;;;;;5.50;3.60;;;;;;;;;;4992566;28;20435;-75
2024/02/26 07:10:00;;;;;;;4.07;3.10;;;;;;;;;;4992450;28;20411;-75
2024/02/26 07:12:25;;;;;;;8.67;3.90;;;;;;;;;;4992974;28;20411;-76
2024/02/26 07:14:52;;;;;;;9.20;4.43;;;;;;;;;;4999118;28;20499;-78
2024/02/26 07:17:18;;;;;;;8.13;4.20;;;;;;;;;;4998536;28;20451;-75
2024/02/26 07:19:44;;;;;;;9.37;4.07;;;;;;;;;;4992811;28;20458;-76
2024/02/26 07:22:10;;;;;;;7.73;4.03;;;;;;;;;;5001992;28;20464;-80
2024/02/26 07:24:36;;;;;;;10.13;4.40;;;;;;;;;;5014273;28;20457;-80
2024/02/26 07:27:02;;;;;;;8.97;6.20;;;;;;;;;;5027703;28;20943;-80
2024/02/26 07:29:27;;;;;;;8.03;4.03;;;;;;;;;;5019538;28;20453;-81
2024/02/26 07:31:53;;;;;;;10.40;4.23;;;;;;;;;;5020885;28;20417;-80
2024/02/26 07:34:19;;;;;;;10.63;4.97;;;;;;;;;;5011318;28;20469;-76
2024/02/26 07:36:45;;;;;;;12.57;5.07;;;;;;;;;;5011448;28;20505;-76
2024/02/26 07:39:11;;;;;;;12.87;4.93;;;;;;;;;;5011868;28;20452;-76
2024/02/26 07:41:38;;;;;;;10.53;4.40;;;;;;;;;;5010616;28;20789;-74
2024/02/26 07:44:05;;;;;;;13.00;3.77;;;;;;;;;;5020742;28;20552;-76
2024/02/26 07:46:31;;;;;;;7.60;4.07;;;;;;;;;;5034130;28;20975;-76
2024/02/26 07:48:57;;;;;;;9.33;4.30;;;;;;;;;;5034650;28;20463;-76
2024/02/26 07:51:23;;;;;;;7.90;4.20;;;;;;;;;;5034487;28;20424;-76
2024/02/26 07:53:49;;;;;;;10.43;4.30;;;;;;;;;;5033855;28;20465;-74
2024/02/26 07:56:14;;;;;;;11.13;4.77;;;;;;;;;;5033993;28;20483;-74
2024/02/26 07:58:40;;;;;;;12.33;4.67;;;;;;;;;;5034585;28;20408;-75
2024/02/26 08:01:06;;;;;;;10.10;5.10;;;;;;;;;;5034785;28;20405;-75
2024/02/26 08:03:32;;;;;;;10.27;4.60;;;;;;;;;;5034189;28;20409;-76
2024/02/26 08:05:58;;;;;;;9.33;5.27;;;;;;;;;;5033891;28;20935;-76
2024/02/26 08:08:24;;;;;;;7.10;4.27;;;;;;;;;;5034358;28;20771;-76
2024/02/26 08:10:50;;;;;;;7.60;4.70;;;;;;;;;;5034478;28;20420;-76
2024/02/26 08:13:16;;;;;;;6.50;4.00;;;;;;;;;;5033722;28;20465;-76
2024/02/26 08:15:42;;;;;;;11.60;5.17;;;;;;;;;;5034936;28;20433;-76
2024/02/26 08:18:08;;;;;;;5.40;4.00;;;;;;;;;;5034381;28;20409;-75
2024/02/26 08:20:34;;;;;;;7.30;4.47;;;;;;;;;;5033975;28;20468;-76
2024/02/26 08:23:00;;;;;;;6.67;3.67;;;;;;;;;;5013213;28;20832;-75
2024/02/26 08:25:26;;;;;;;4.90;3.23;;;;;;;;;;4994659;28;20775;-74
2024/02/26 08:27:52;;;;;;;5.23;3.60;;;;;;;;;;5006744;28;20446;-73
2024/02/26 08:30:18;;;;;;;4.57;3.73;;;;;;;;;;5000770;28;20418;-74
2024/02/26 08:32:45;;;;;;;5.43;3.40;;;;;;;;;;4996522;28;20469;-75
2024/02/26 08:35:11;;;;;;;5.47;3.50;;;;;;;;;;5003554;28;20474;-74
2024/02/26 08:37:37;;;;;;;11.00;4.50;;;;;;;;;;5007062;28;20434;-76
2024/02/26 08:40:06;;;;;;;6.80;3.73;;;;;;;;;;5022205;28;20410;-75
2024/02/26 08:42:32;;;;;;;10.10;3.80;;;;;;;;;;5014709;28;20421;-74
2024/02/26 08:45:02;;;;;;;6.07;3.43;;;;;;;;;;5004685;28;20415;-74
2024/02/26 08:47:28;;;;;;;8.90;3.83;;;;;;;;;;4996898;28;20538;-74
2024/02/26 08:49:54;;;;;;;10.27;4.00;;;;;;;;;;4995745;28;20447;-76
2024/02/26 08:52:21;;;;;;;6.20;3.90;;;;;;;;;;4993733;28;20942;-75
2024/02/26 08:54:47;;;;;;;6.47;4.00;;;;;;;;;;4993526;28;20513;-75
2024/02/26 08:57:13;;;;;;;6.20;3.50;;;;;;;;;;5010829;28;20442;-77
2024/02/26 08:59:39;;;;;;;7.30;3.63;;;;;;;;;;5003108;28;20802;-76
2024/02/26 09:02:05;;;;;;;7.10;3.90;;;;;;;;;;5009692;28;20410;-76
2024/02/26 09:04:31;;;;;;;4.90;3.67;;;;;;;;;;5006257;28;20449;-76
2024/02/26 09:06:57;;;;;;;7.77;3.27;;;;;;;;;;5013055;28;20465;-76
2024/02/26 09:09:25;;;;;;;6.10;3.67;;;;;;;;;;5013377;28;20426;-75
2024/02/26 09:11:51;;;;;;;3.00;2.60;;;;;;;;;;5013286;28;20957;-75
2024/02/26 09:14:18;;;;;;;6.10;3.53;;;;;;;;;;5010774;28;20480;-75
2024/02/26 09:16:43;;;;;;;4.90;3.03;;;;;;;;;;5002132;28;20532;-76
2024/02/26 09:19:09;;;;;;;5.00;2.80;;;;;;;;;;5009724;28;20960;-76
2024/02/26 09:21:36;;;;;;;6.97;3.13;;;;;;;;;;4994741;28;20918;-76
2024/02/26 09:24:02;;;;;;;5.40;2.57;;;;;;;;;;4994865;28;20419;-74
2024/02/26 09:26:28;;;;;;;5.10;2.87;;;;;;;;;;4995401;28;20445;-75
2024/02/26 09:28:54;;;;;;;4.90;2.93;;;;;;;;;;4997704;28;20902;-76
2024/02/26 09:31:20;;;;;;;6.50;3.00;;;;;;;;;;4993621;28;20430;-77
2024/02/26 09:33:46;;;;;;;3.80;3.00;;;;;;;;;;5012363;28;21040;-76
2024/02/26 09:36:12;;;;;;;6.23;2.70;;;;;;;;;;5011430;28;20953;-76
2024/02/26 09:38:39;;;;;;;4.37;2.80;;;;;;;;;;5009222;28;20425;-75
2024/02/26 09:41:05;;;;;;;3.30;2.90;;;;;;;;;;5013576;28;20406;-77
2024/02/26 09:43:36;;;;;;;4.03;2.57;;;;;;;;;;5012533;28;20491;-77
2024/02/26 09:46:02;;;;;;;3.33;2.73;;;;;;;;;;5005671;28;20941;-77
2024/02/26 09:48:28;;;;;;;3.30;2.43;;;;;;;;;;4993132;28;20505;-78
2024/02/26 09:50:54;;;;;;;5.47;3.10;;;;;;;;;;5001508;28;20771;-75
2024/02/26 09:53:22;;;;;;;5.50;3.40;;;;;;;;;;5005121;28;20553;-76
2024/02/26 09:55:48;;;;;;;5.20;3.23;;;;;;;;;;5001850;28;20505;-77
2024/02/26 09:58:18;;;;;;;5.43;3.27;;;;;;;;;;5007797;28;20421;-77
2024/02/26 10:00:46;;;;;;;7.23;3.30;;;;;;;;;;5007885;28;20430;-75
2024/02/26 10:03:15;;;;;;;6.33;2.80;;;;;;;;;;5004816;28;20425;-74
2024/02/26 10:05:41;;;;;;;8.13;3.70;;;;;;;;;;5006343;28;20864;-76
2024/02/26 10:08:08;;;;;;;6.77;3.60;;;;;;;;;;5011369;28;20425;-75
2024/02/26 10:10:34;;;;;;;6.60;3.23;;;;;;;;;;5013353;28;20415;-74
2024/02/26 10:13:01;;;;;;;3.60;2.80;;;;;;;;;;5001803;28;20427;-75
2024/02/26 10:15:27;;;;;;;5.93;2.63;;;;;;;;;;5001507;28;20418;-76
2024/02/26 10:17:53;;;;;;;5.90;3.30;;;;;;;;;;5004447;28;20438;-74
2024/02/26 10:20:21;;;;;;;6.93;3.23;;;;;;;;;;5007803;28;20403;-75
2024/02/26 10:22:48;;;;;;;4.53;3.13;;;;;;;;;;5013851;28;20403;-75
2024/02/26 10:25:14;;;;;;;3.67;2.47;;;;;;;;;;5003339;28;20474;-74
2024/02/26 10:27:44;;;;;;;5.40;3.17;;;;;;;;;;5006401;28;20460;-72
2024/02/26 10:30:20;;;;;;;5.37;3.40;;;;;;;;;;5011898;28;20414;-73
2024/02/26 10:32:47;;;;;;;3.73;2.73;;;;;;;;;;5022499;28;20413;-75
2024/02/26 10:35:13;;;;;;;8.40;3.30;;;;;;;;;;5021516;28;20494;-74
2024/02/26 10:37:41;;;;;;;6.50;2.80;;;;;;;;;;5006609;28;20971;-76
2024/02/26 10:40:07;;;;;;;3.97;3.00;;;;;;;;;;4997899;28;20795;-76
2024/02/26 10:42:33;;;;;;;4.03;2.43;;;;;;;;;;5001156;28;20769;-72
2024/02/26 10:44:59;;;;;;;4.10;2.87;;;;;;;;;;5008685;28;20424;-77
2024/02/26 10:47:25;;;;;;;4.47;2.80;;;;;;;;;;4997708;28;20469;-76
2024/02/26 10:49:51;;;;;;;5.27;2.80;;;;;;;;;;4999851;28;20426;-77
2024/02/26 10:52:19;;;;;;;9.70;5.13;;;;;;;;;;4997927;28;20424;-76
2024/02/26 10:54:48;;;;;;;11.23;4.50;;;;;;;;;;4995944;28;20470;-76
2024/02/26 10:57:14;;;;;;;10.70;4.90;;;;;;;;;;5008362;28;20917;-77
2024/02/26 10:59:43;;;;;;;9.10;4.87;;;;;;;;;;5011685;28;20456;-77
2024/02/26 11:02:10;;;;;;;9.37;4.47;;;;;;;;;;5013682;28;20454;-77
2024/02/26 11:04:36;;;;;;;8.00;4.53;;;;;;;;;;5000400;28;20435;-78
2024/02/26 11:07:02;;;;;;;10.47;5.37;;;;;;;;;;5003781;28;20864;-77
2024/02/26 11:09:28;;;;;;;8.43;4.50;;;;;;;;;;4993431;28;20419;-77
2024/02/26 11:11:54;;;;;;;9.27;5.00;;;;;;;;;;5000297;28;20853;-77
2024/02/26 11:14:21;;;;;;;10.73;4.17;;;;;;;;;;4995005;28;20834;-77
2024/02/26 11:16:48;;;;;;;18.03;5.60;;;;;;;;;;4993572;28;20482;-77
2024/02/26 11:19:14;;;;;;;13.40;5.40;;;;;;;;;;5012299;28;20418;-75
2024/02/26 11:21:41;;;;;;;8.60;3.93;;;;;;;;;;5024755;28;20427;-74
2024/02/26 11:24:18;;;;;;;9.63;4.77;;;;;;;;;;5006576;28;20530;-74
2024/02/26 11:26:47;;;;;;;10.03;3.97;;;;;;;;;;5003293;28;20426;-74
2024/02/26 11:29:14;;;;;;;11.33;4.63;;;;;;;;;;5010799;28;20635;-74
2024/02/26 11:31:41;;;;;;;5.83;3.10;;;;;;;;;;5018526;28;20414;-74
2024/02/26 11:34:08;;;;;;;10.47;3.37;;;;;;;;;;5013077;28;20477;-73
2024/02/26 11:36:34;;;;;;;8.37;4.37;;;;;;;;;;5003213;28;20803;-73
2024/02/26 11:39:00;;;;;;;11.40;4.57;;;;;;;;;;5003376;28;20522;-72
2024/02/26 11:41:26;;;;;;;6.00;3.20;;;;;;;;;;5014721;28;20422;-73
2024/02/26 11:43:53;;;;;;;6.70;3.43;;;;;;;;;;5014494;28;20480;-72
2024/02/26 11:46:30;;;;;;;8.17;3.50;;;;;;;;;;5006388;28;20438;-74
2024/02/26 11:49:03;;;;;;;7.90;3.00;;;;;;;;;;4995901;28;20426;-74
2024/02/26 11:51:33;;;;;;;9.70;3.87;;;;;;;;;;5000640;28;20410;-74
2024/02/26 11:53:59;;;;;;;6.97;3.80;;;;;;;;;;5014405;28;20520;-74
2024/02/26 11:56:32;;;;;;;6.77;3.73;;;;;;;;;;5007813;28;20797;-74
2024/02/26 11:59:06;;;;;;;5.53;3.70;;;;;;;;;;4999155;28;20407;-74
2024/02/26 12:01:52;;;;;;;4.53;2.73;;;;;;;;;;5006620;28;20819;-74
2024/02/26 12:04:26;;;;;;;4.40;2.97;;;;;;;;;;5014404;28;20414;-74
2024/02/26 12:07:00;;;;;;;2.63;2.13;;;;;;;;;;5014625;28;20588;-74
2024/02/26 12:09:39;;;;;;;3.73;2.53;;;;;;;;;;5014739;28;20414;-74
2024/02/26 12:12:06;;;;;;;4.13;2.37;;;;;;;;;;5014350;28;20817;-74
2024/02/26 12:14:33;;;;;;;5.23;2.60;;;;;;;;;;5014556;28;20489;-73
2024/02/26 12:19:28;;;;;;;3.40;2.37;;;;;;;;;;5032737;28;20540;-78
2024/02/26 12:21:54;;;;;;;3.10;2.57;;;;;;;;;;5032736;28;20422;-77
2024/02/26 12:24:21;;;;;;;1.90;1.70;;;;;;;;;;5037555;28;20633;-79
2024/02/26 12:26:47;;;;;;;2.90;1.73;;;;;;;;;;5033253;28;20422;-78
2024/02/26 12:29:13;;;;;;;2.40;1.80;;;;;;;;;;5033919;28;20449;-78
2024/02/26 12:31:40;;;;;;;4.20;1.73;;;;;;;;;;5050329;28;20496;-79
2024/02/26 12:34:07;;;;;;;3.70;1.40;;;;;;;;;;5034618;28;20449;-77
2024/02/26 12:36:36;;;;;;;3.60;1.50;;;;;;;;;;5034725;28;20486;-77
2024/02/26 12:39:05;;;;;;;1.87;1.77;;;;;;;;;;5049704;28;20414;-76
2024/02/26 12:41:31;;;;;;;3.47;1.90;;;;;;;;;;5032899;28;20398;-76
2024/02/26 12:43:58;;;;;;;1.67;1.63;;;;;;;;;;5035030;28;20465;-78
2024/02/26 12:46:24;;;;;;;1.83;1.50;;;;;;;;;;5049259;28;20449;-79
2024/02/26 12:48:50;;;;;;;2.60;1.73;;;;;;;;;;5050168;28;20399;-78
2024/02/26 12:51:16;;;;;;;1.60;1.30;;;;;;;;;;5037822;28;20433;-79
2024/02/26 12:53:43;;;;;;;3.20;1.83;;;;;;;;;;5036773;28;20479;-78
2024/02/26 12:56:10;;;;;;;2.70;1.83;;;;;;;;;;5037983;28;20417;-80
2024/02/26 12:58:38;;;;;;;4.90;1.50;;;;;;;;;;5020155;28;20411;-80
2024/02/26 13:01:04;;;;;;;3.43;1.80;;;;;;;;;;5027654;28;20502;-79
2024/02/26 13:03:30;;;;;;;2.40;1.47;;;;;;;;;;5014628;28;20415;-77
2024/02/26 13:05:56;;;;;;;2.20;1.43;;;;;;;;;;5013750;28;20442;-77
2024/02/26 13:08:23;;;;;;;2.40;1.53;;;;;;;;;;5030960;28;20445;-78
2024/02/26 13:10:51;;;;;;;2.10;1.50;;;;;;;;;;5014814;28;20984;-78
2024/02/26 13:13:17;;;;;;;1.87;1.33;;;;;;;;;;5002978;28;20801;-80
2024/02/26 13:15:43;;;;;;;4.40;1.60;;;;;;;;;;5008341;28;20477;-80
2024/02/26 13:18:13;;;;;;;2.10;1.60;;;;;;;;;;5007363;28;20458;-76
2024/02/26 13:20:42;;;;;;;1.90;1.43;;;;;;;;;;5028488;28;20860;-77
2024/02/26 13:23:11;;;;;;;3.90;1.63;;;;;;;;;;5011886;28;20442;-79
2024/02/26 13:25:38;;;;;;;3.50;1.80;;;;;;;;;;5022752;28;20414;-79
2024/02/26 13:28:20;;;;;;;1.70;1.27;;;;;;;;;;5028231;28;20594;-80
2024/02/26 13:30:53;;;;;;;2.30;1.53;;;;;;;;;;5015242;28;20485;-78
2024/02/26 13:33:19;;;;;;;4.63;1.53;;;;;;;;;;5040559;28;20426;-79
2024/02/26 13:35:45;;;;;;;2.20;1.53;;;;;;;;;;5025336;28;20415;-79
2024/02/26 13:38:12;;;;;;;3.60;1.87;;;;;;;;;;5035361;28;20527;-79
2024/02/26 13:40:39;;;;;;;2.43;1.80;;;;;;;;;;5024257;28;20905;-78
2024/02/26 13:43:05;;;;;;;6.93;2.37;;;;;;;;;;5023910;28;20414;-78
2024/02/26 13:45:31;;;;;;;2.20;2.00;;;;;;;;;;5015479;28;20421;-77
2024/02/26 13:48:02;;;;;;;5.00;1.70;;;;;;;;;;5024929;28;20469;-80
2024/02/26 13:50:27;;;;;;;2.20;1.63;;;;;;;;;;5044154;28;20422;-80
2024/02/26 13:52:55;;;;;;;4.93;2.30;;;;;;;;;;5041917;28;20497;-79
2024/02/26 13:55:23;;;;;;;9.23;3.00;;;;;;;;;;5025749;28;20478;-78
2024/02/26 13:57:51;;;;;;;4.20;2.40;;;;;;;;;;5022048;28;20434;-78
2024/02/26 14:00:17;;;;;;;5.43;2.30;;;;;;;;;;5012676;28;20876;-79
2024/02/26 14:02:43;;;;;;;1.87;1.53;;;;;;;;;;5007640;28;20513;-77
2024/02/26 14:05:10;;;;;;;3.30;1.73;;;;;;;;;;5010608;28;20877;-77
2024/02/26 14:07:35;;;;;;;2.00;1.73;;;;;;;;;;5011279;28;20446;-76
2024/02/26 14:10:01;;;;;;;9.23;2.30;;;;;;;;;;5012401;28;20414;-77
2024/02/26 14:12:27;;;;;;;3.73;1.93;;;;;;;;;;5027568;28;20426;-75
2024/02/26 14:14:55;;;;;;;3.20;1.80;;;;;;;;;;5000771;28;20467;-78
2024/02/26 14:17:21;;;;;;;4.10;1.80;;;;;;;;;;5011636;28;20450;-79
2024/02/26 14:19:48;;;;;;;10.73;2.60;;;;;;;;;;5013698;28;20454;-78
2024/02/26 14:22:15;;;;;;;7.43;1.00;;;;;;;;;;5007665;28;20442;-78
2024/02/26 14:24:42;;;;;;;1.60;1.20;;;;;;;;;;5019903;28;20497;-78
2024/02/26 14:27:15;;;;;;;1.20;1.20;;;;;;;;;;5025423;28;20456;-79
2024/02/26 14:29:42;;;;;;;3.33;1.37;;;;;;;;;;5025607;28;20425;-79
2024/02/26 14:32:08;;;;;;;1.97;1.50;;;;;;;;;;5022011;28;20429;-79
2024/02/26 14:34:34;;;;;;;3.53;1.53;;;;;;;;;;5014363;28;20495;-75
2024/02/26 14:37:00;;;;;;;2.50;1.40;;;;;;;;;;5012156;28;20759;-77
2024/02/26 14:39:26;;;;;;;3.97;1.30;;;;;;;;;;5011706;28;20911;-78
2024/02/26 14:41:52;;;;;;;1.10;1.00;;;;;;;;;;5012537;28;20792;-75
2024/02/26 14:44:18;;;;;;;1.77;1.50;;;;;;;;;;5011634;28;20453;-76
2024/02/26 14:46:44;;;;;;;1.30;1.10;;;;;;;;;;5026770;28;20504;-76
2024/02/26 14:49:11;;;;;;;3.60;1.17;;;;;;;;;;5026985;28;20410;-76
2024/02/26 14:51:37;;;;;;;2.83;1.30;;;;;;;;;;5028587;28;20929;-76
2024/02/26 14:54:03;;;;;;;1.60;1.10;;;;;;;;;;5016477;28;20844;-77
2024/02/26 14:56:29;;;;;;;1.77;1.00;;;;;;;;;;5016552;28;20430;-76
2024/02/26 14:58:55;;;;;;;3.43;1.23;;;;;;;;;;5016724;28;20847;-74
2024/02/26 15:01:21;;;;;;;2.27;1.50;;;;;;;;;;5014963;28;20768;-73
2024/02/26 15:03:47;;;;;;;3.03;1.30;;;;;;;;;;5011510;28;20422;-75
2024/02/26 15:06:13;;;;;;;4.30;1.30;;;;;;;;;;5008025;28;20438;-75
2024/02/26 15:08:39;;;;;;;1.10;1.00;;;;;;;;;;5015932;28;20414;-73
2024/02/26 15:11:06;;;;;;;1.20;1.13;;;;;;;;;;5015249;28;20414;-76
2024/02/26 15:13:32;;;;;;;2.10;1.50;;;;;;;;;;5030535;28;20544;-77
2024/02/26 15:15:58;;;;;;;4.53;1.40;;;;;;;;;;5016485;28;20844;-78
2024/02/26 15:18:24;;;;;;;1.67;1.30;;;;;;;;;;5031484;28;20532;-78
2024/02/26 15:20:49;;;;;;;1.80;1.57;;;;;;;;;;5009762;28;20893;-78
2024/02/26 15:23:17;;;;;;;3.53;1.67;;;;;;;;;;4996764;28;20407;-77
2024/02/26 15:25:43;;;;;;;3.73;1.90;;;;;;;;;;4996200;28;20903;-78
2024/02/26 15:28:14;;;;;;;3.13;1.77;;;;;;;;;;4996505;28;20485;-78
2024/02/26 15:30:40;;;;;;;4.70;1.77;;;;;;;;;;4998330;28;20467;-78
2024/02/26 15:33:06;;;;;;;3.67;1.80;;;;;;;;;;5012019;28;20406;-78
2024/02/26 15:35:32;;;;;;;2.07;1.93;;;;;;;;;;4996111;28;21048;-78
2024/02/26 15:37:58;;;;;;;6.40;2.40;;;;;;;;;;5011469;28;20807;-77
2024/02/26 15:40:25;;;;;;;2.30;1.93;;;;;;;;;;4996653;28;20407;-77
2024/02/26 15:42:51;;;;;;;2.30;2.17;;;;;;;;;;5011721;28;20419;-78
2024/02/26 15:45:17;;;;;;;5.53;2.20;;;;;;;;;;4996151;28;20415;-78
2024/02/26 15:47:43;;;;;;;2.00;1.80;;;;;;;;;;4996223;28;20956;-78
2024/02/26 15:50:13;;;;;;;4.07;2.20;;;;;;;;;;4996247;28;20415;-78
2024/02/26 15:52:39;;;;;;;2.67;1.90;;;;;;;;;;4996413;28;20498;-78
2024/02/26 15:55:05;;;;;;;4.00;1.87;;;;;;;;;;4996260;28;20562;-78
2024/02/26 15:57:32;;;;;;;2.13;1.80;;;;;;;;;;5011751;28;20888;-78
2024/02/26 16:00:01;;;;;;;4.73;2.53;;;;;;;;;;5018446;28;20687;-78
2024/02/26 16:02:27;;;;;;;3.87;2.20;;;;;;;;;;5004244;28;20506;-78
2024/02/26 16:04:54;;;;;;;5.63;2.80;;;;;;;;;;4994845;28;20418;-78
2024/02/26 16:07:24;;;;;;;2.73;2.00;;;;;;;;;;5011677;28;20462;-79
2024/02/26 16:09:51;;;;;;;4.07;2.40;;;;;;;;;;5002476;28;20403;-79
2024/02/26 16:12:20;;;;;;;4.10;2.50;;;;;;;;;;5002666;28;20417;-79
2024/02/26 16:14:47;;;;;;;3.43;2.20;;;;;;;;;;5017084;28;20466;-79
2024/02/26 16:17:16;;;;;;;2.90;2.30;;;;;;;;;;5016348;28;20443;-79
2024/02/26 16:19:42;;;;;;;4.90;2.60;;;;;;;;;;5016299;28;20937;-79
2024/02/26 16:22:08;;;;;;;5.93;2.10;;;;;;;;;;5001693;28;20442;-79
2024/02/26 16:24:34;;;;;;;4.53;2.57;;;;;;;;;;5001973;28;20467;-79
2024/02/26 16:27:00;;;;;;;3.67;2.83;;;;;;;;;;5000626;28;20438;-77
2024/02/26 16:29:26;;;;;;;4.23;2.30;;;;;;;;;;4994885;28;20798;-77
2024/02/26 16:31:53;;;;;;;2.33;1.80;;;;;;;;;;4999575;28;20418;-75
2024/02/26 16:34:19;;;;;;;3.77;2.50;;;;;;;;;;5014608;28;20469;-75
2024/02/26 16:36:45;;;;;;;5.60;1.90;;;;;;;;;;5012644;28;20948;-75
2024/02/26 16:39:11;;;;;;;7.20;3.20;;;;;;;;;;5013517;28;20788;-75
2024/02/26 16:41:37;;;;;;;4.07;2.70;;;;;;;;;;5029044;28;20901;-74
2024/02/26 16:44:03;;;;;;;5.00;2.40;;;;;;;;;;5012327;28;20445;-74
2024/02/26 16:46:29;;;;;;;3.83;2.43;;;;;;;;;;5013192;28;20438;-74
2024/02/26 16:48:55;;;;;;;3.70;2.43;;;;;;;;;;5013403;28;20461;-74
2024/02/26 16:51:22;;;;;;;3.50;2.50;;;;;;;;;;5028752;28;20418;-74
2024/02/26 16:53:48;;;;;;;4.73;2.83;;;;;;;;;;5012667;28;20477;-74
2024/02/26 16:56:14;;;;;;;5.70;2.73;;;;;;;;;;5013158;28;20897;-74
2024/02/26 16:58:40;;;;;;;3.00;2.10;;;;;;;;;;5014877;28;20509;-74
2024/02/26 17:01:07;;;;;;;3.10;2.17;;;;;;;;;;5028270;28;20449;-74
2024/02/26 17:03:35;;;;;;;4.13;2.47;;;;;;;;;;5012514;28;20437;-74
2024/02/26 17:06:01;;;;;;;4.87;2.73;;;;;;;;;;5028058;28;20437;-76
2024/02/26 17:08:28;;;;;;;6.17;3.07;;;;;;;;;;5013458;28;20825;-75
2024/02/26 17:10:53;;;;;;;3.30;2.30;;;;;;;;;;5012978;28;20910;-75
2024/02/26 17:13:22;;;;;;;3.80;2.33;;;;;;;;;;5027502;28;20501;-74
2024/02/26 17:15:48;;;;;;;2.90;2.17;;;;;;;;;;5013239;28;20406;-75
2024/02/26 17:18:14;;;;;;;5.23;2.50;;;;;;;;;;5013716;28;20461;-75
2024/02/26 17:20:40;;;;;;;5.13;3.10;;;;;;;;;;5028784;28;20442;-75
2024/02/26 17:23:06;;;;;;;2.80;1.93;;;;;;;;;;5012723;28;21048;-75
2024/02/26 17:25:32;;;;;;;6.40;2.43;;;;;;;;;;5013301;28;20504;-75
2024/02/26 17:27:58;;;;;;;4.40;2.33;;;;;;;;;;5013220;28;20433;-71
2024/02/26 17:30:24;;;;;;;4.13;2.10;;;;;;;;;;5013182;28;20414;-75
2024/02/26 17:32:51;;;;;;;6.93;2.60;;;;;;;;;;5006955;28;20577;-74
2024/02/26 17:35:17;;;;;;;6.50;2.60;;;;;;;;;;5012205;28;20477;-74
2024/02/26 17:37:44;;;;;;;2.90;2.47;;;;;;;;;;5010452;28;20434;-74
2024/02/26 17:40:10;;;;;;;6.67;3.23;;;;;;;;;;5009764;28;20437;-78
2024/02/26 17:42:36;;;;;;;7.60;3.60;;;;;;;;;;5021902;28;20445;-79
2024/02/26 17:45:04;;;;;;;8.00;3.30;;;;;;;;;;5029885;28;20465;-78
2024/02/26 17:47:29;;;;;;;7.87;3.17;;;;;;;;;;5029760;28;20445;-79
2024/02/26 17:49:55;;;;;;;5.43;2.93;;;;;;;;;;5021424;28;20418;-79
2024/02/26 17:52:21;;;;;;;4.30;2.60;;;;;;;;;;5014127;28;20425;-78
2024/02/26 17:54:47;;;;;;;8.33;3.07;;;;;;;;;;5025671;28;20529;-78
2024/02/26 17:57:13;;;;;;;4.60;2.80;;;;;;;;;;5032516;28;20441;-79
2024/02/26 17:59:39;;;;;;;3.87;2.77;;;;;;;;;;5027866;28;20418;-79
2024/02/26 18:02:05;;;;;;;4.40;3.20;;;;;;;;;;5025236;28;20418;-79
2024/02/26 18:04:32;;;;;;;4.00;3.03;;;;;;;;;;5025139;28;20414;-78
2024/02/26 18:07:00;;;;;;;5.03;3.43;;;;;;;;;;5015484;28;20446;-79
2024/02/26 18:09:26;;;;;;;6.20;3.80;;;;;;;;;;5020886;28;20415;-78
2024/02/26 18:11:55;;;;;;;5.70;3.40;;;;;;;;;;5024998;28;20426;-79
2024/02/26 18:14:21;;;;;;;8.70;3.20;;;;;;;;;;5012406;28;20466;-76
2024/02/26 18:16:47;;;;;;;7.90;4.00;;;;;;;;;;5013346;28;20949;-77
2024/02/26 18:19:13;;;;;;;5.37;3.03;;;;;;;;;;5036059;22;20503;-76
2024/02/26 18:21:39;;;;;;;7.20;3.83;;;;;;;;;;4999522;28;20439;-77
2024/02/26 18:24:05;;;;;;;7.00;4.30;;;;;;;;;;4999254;28;20418;-77
2024/02/26 18:26:33;;;;;;;6.30;3.70;;;;;;;;;;4993019;28;20415;-78
2024/02/26 18:28:59;;;;;;;5.53;3.80;;;;;;;;;;4987526;28;20486;-75
2024/02/26 18:31:25;;;;;;;6.23;3.20;;;;;;;;;;4985612;28;20422;-74
2024/02/26 18:33:51;;;;;;;7.80;3.80;;;;;;;;;;4986305;28;20915;-75
2024/02/26 18:36:22;;;;;;;7.83;4.50;;;;;;;;;;4993306;28;20415;-75
2024/02/26 18:38:48;;;;;;;7.93;4.10;;;;;;;;;;4990560;28;20442;-76
2024/02/26 18:41:23;;;;;;;3.93;3.77;;;;;;;;;;4992682;28;20518;-76
2024/02/26 18:43:50;;;;;;;7.87;4.30;;;;;;;;;;4991164;28;20430;-76
2024/02/26 18:46:16;;;;;;;7.03;4.20;;;;;;;;;;4984844;28;20427;-75
2024/02/26 18:48:42;;;;;;;7.20;3.90;;;;;;;;;;4991356;28;20504;-75
2024/02/26 18:51:09;;;;;;;7.73;3.70;;;;;;;;;;4992058;28;20534;-76
2024/02/26 18:53:35;;;;;;;9.03;4.83;;;;;;;;;;4992691;28;20419;-75
2024/02/26 18:56:02;;;;;;;6.83;4.17;;;;;;;;;;4989993;28;20431;-76
2024/02/26 18:58:28;;;;;;;7.10;5.00;;;;;;;;;;4974840;28;20792;-76
2024/02/26 19:00:54;;;;;;;5.37;3.57;;;;;;;;;;4994544;28;20470;-75
2024/02/26 19:03:20;;;;;;;6.90;3.60;;;;;;;;;;4998642;28;20422;-76
2024/02/26 19:05:46;;;;;;;8.00;4.10;;;;;;;;;;4993956;28;20504;-77
2024/02/26 19:08:12;;;;;;;6.43;3.90;;;;;;;;;;4987823;28;20447;-76
2024/02/26 19:10:38;;;;;;;8.33;4.67;;;;;;;;;;4984854;28;20430;-76
2024/02/26 19:13:04;;;;;;;7.00;4.37;;;;;;;;;;4991827;28;20433;-75
2024/02/26 19:15:31;;;;;;;6.07;3.90;;;;;;;;;;4982599;28;20506;-75
2024/02/26 19:17:57;;;;;;;6.93;3.77;;;;;;;;;;4987487;28;20494;-75
2024/02/26 19:20:23;;;;;;;7.70;4.10;;;;;;;;;;4986626;28;20415;-76
2024/02/26 19:22:49;;;;;;;6.73;4.20;;;;;;;;;;4990267;28;20481;-75
2024/02/26 19:25:15;;;;;;;8.30;3.70;;;;;;;;;;4984401;28;20433;-75
2024/02/26 19:27:42;;;;;;;9.13;4.20;;;;;;;;;;4972811;28;20530;-75
2024/02/26 19:30:08;;;;;;;10.10;5.27;;;;;;;;;;4974411;28;20437;-75
2024/02/26 19:32:34;;;;;;;8.07;4.33;;;;;;;;;;4987497;28;20518;-75
2024/02/26 19:35:00;;;;;;;5.80;4.37;;;;;;;;;;4991374;28;20969;-76
2024/02/26 19:37:26;;;;;;;9.50;4.70;;;;;;;;;;4990446;28;20803;-77
2024/02/26 19:39:58;;;;;;;8.03;4.67;;;;;;;;;;4987591;28;20570;-76
2024/02/26 19:42:27;;;;;;;7.47;4.50;;;;;;;;;;4991627;28;20422;-75
2024/02/26 19:44:53;;;;;;;6.73;4.50;;;;;;;;;;4991347;28;20506;-77
2024/02/26 19:47:19;;;;;;;9.70;4.53;;;;;;;;;;4987786;28;20869;-77
2024/02/26 19:49:45;;;;;;;10.60;4.83;;;;;;;;;;4984968;28;20427;-76
2024/02/26 19:52:11;;;;;;;10.57;4.40;;;;;;;;;;4989611;28;20813;-75
2024/02/26 19:54:38;;;;;;;7.27;4.47;;;;;;;;;;4987529;28;20474;-75
2024/02/26 19:57:05;;;;;;;10.70;5.43;;;;;;;;;;4993669;28;20415;-74
2024/02/26 19:59:31;;;;;;;12.27;4.93;;;;;;;;;;4995275;28;20425;-76
2024/02/26 20:01:58;;;;;;;11.17;5.80;;;;;;;;;;4979928;28;20507;-76
2024/02/26 20:04:23;;;;;;;9.00;4.93;;;;;;;;;;4993078;28;20797;-76
2024/02/26 20:06:49;;;;;;;9.83;4.90;;;;;;;;;;4994806;28;20419;-74
2024/02/26 20:09:17;;;;;;;7.30;3.87;;;;;;;;;;4995663;28;20470;-75
2024/02/26 20:11:43;;;;;;;7.07;5.30;;;;;;;;;;4993487;28;20490;-76
2024/02/26 20:14:11;;;;;;;5.33;4.30;;;;;;;;;;4975624;28;20467;-76
2024/02/26 20:16:37;;;;;;;8.20;5.30;;;;;;;;;;4981941;28;20505;-77
2024/02/26 20:19:07;;;;;;;8.10;4.20;;;;;;;;;;4994750;28;20541;-77
2024/02/26 20:21:33;;;;;;;7.90;4.77;;;;;;;;;;4991373;28;20457;-75
2024/02/26 20:23:59;;;;;;;9.57;5.40;;;;;;;;;;4993559;28;20478;-76
2024/02/26 20:26:25;;;;;;;8.63;4.43;;;;;;;;;;4994095;28;20449;-76
2024/02/26 20:28:51;;;;;;;13.77;5.50;;;;;;;;;;4994594;28;20441;-76
2024/02/26 20:31:17;;;;;;;11.47;5.60;;;;;;;;;;4985682;28;20427;-75
2024/02/26 20:33:44;;;;;;;6.57;4.23;;;;;;;;;;4986498;28;20477;-78
2024/02/26 20:36:10;;;;;;;7.30;5.10;;;;;;;;;;4987407;28;20418;-77
2024/02/26 20:38:36;;;;;;;11.63;5.97;;;;;;;;;;4995327;28;20435;-78
2024/02/26 20:41:02;;;;;;;10.20;5.20;;;;;;;;;;4995311;28;20407;-79